createdAt,value
2022-11-16T00:01:43.502Z,15.70
2022-11-16T00:04:12.068Z,16.37
2022-11-16T00:06:39.100Z,17.40
2022-11-16T00:09:24.022Z,19.43
2022-11-16T00:11:53.123Z,28.50
2022-11-16T00:14:21.264Z,40.00
2022-11-16T00:16:48.052Z,26.40
2022-11-16T00:19:14.701Z,19.87
2022-11-16T00:21:41.561Z,18.10
2022-11-16T00:24:12.044Z,18.77
2022-11-16T00:26:38.710Z,42.47
2022-11-16T00:29:05.423Z,19.53
2022-11-16T00:31:32.064Z,46.97
2022-11-16T00:33:58.651Z,285.00
2022-11-16T00:36:25.348Z,208.43
2022-11-16T00:38:53.867Z,186.93
2022-11-16T00:41:20.600Z,228.23
2022-11-16T00:43:47.201Z,71.80
2022-11-16T00:46:13.938Z,85.77
2022-11-16T00:48:40.669Z,210.53
2022-11-16T00:51:07.458Z,128.80
2022-11-16T00:53:35.653Z,176.93
2022-11-16T00:56:02.288Z,16.87
2022-11-16T00:58:28.929Z,22.53
2022-11-16T01:00:55.643Z,14.60
2022-11-16T01:03:22.343Z,106.53
2022-11-16T01:05:49.057Z,84.60
2022-11-16T01:08:15.746Z,13.47
2022-11-16T01:10:42.516Z,18.83
2022-11-16T01:13:10.822Z,15.63
2022-11-16T01:15:37.503Z,14.47
2022-11-16T01:18:04.302Z,24.17
2022-11-16T01:20:31.005Z,21.13
2022-11-16T01:22:57.743Z,19.70
2022-11-16T01:25:24.563Z,14.87
2022-11-16T01:27:51.333Z,21.00
2022-11-16T01:30:18.250Z,46.23
2022-11-16T01:32:45.012Z,21.50
2022-11-16T01:35:16.824Z,28.43
2022-11-16T01:37:43.672Z,49.10
2022-11-16T01:40:11.823Z,38.07
2022-11-16T01:42:38.579Z,32.73
2022-11-16T01:45:23.557Z,48.77
2022-11-16T01:47:51.243Z,40.13
2022-11-16T01:50:18.615Z,39.00
2022-11-16T01:52:50.334Z,133.80
2022-11-16T01:55:17.210Z,17.33
2022-11-16T01:57:45.843Z,29.20
2022-11-16T02:00:13.860Z,81.33
2022-11-16T02:02:41.583Z,61.67
2022-11-16T02:05:08.663Z,167.33
2022-11-16T02:08:22.991Z,47.87
2022-11-16T02:11:10.862Z,42.43
2022-11-16T02:13:57.711Z,113.37
2022-11-16T02:16:39.219Z,80.90
2022-11-16T02:19:50.963Z,63.60
2022-11-16T02:22:42.399Z,60.37
2022-11-16T02:25:39.892Z,26.53
2022-11-16T02:28:09.448Z,129.77
2022-11-16T02:30:37.085Z,142.47
2022-11-16T02:33:12.792Z,51.60
2022-11-16T02:35:43.954Z,24.47
2022-11-16T02:38:19.748Z,56.97
2022-11-16T02:40:53.082Z,42.93
2022-11-16T02:43:26.563Z,96.80
2022-11-16T02:45:56.392Z,106.47
2022-11-16T02:48:28.534Z,39.03
2022-11-16T02:50:56.329Z,15.20
2022-11-16T02:53:25.261Z,14.03
2022-11-16T02:55:52.190Z,27.33
2022-11-16T02:58:21.959Z,50.73
2022-11-16T03:00:59.690Z,122.07
2022-11-16T03:03:55.348Z,18.10
2022-11-16T03:06:29.437Z,136.87
2022-11-16T03:09:09.155Z,94.87
2022-11-16T03:11:58.369Z,22.63
2022-11-16T03:14:27.471Z,14.80
2022-11-16T03:16:57.081Z,155.03
2022-11-16T03:19:34.191Z,27.03
2022-11-16T03:22:23.372Z,82.50
2022-11-16T03:24:50.806Z,13.73
2022-11-16T03:27:39.571Z,96.90
2022-11-16T03:30:10.833Z,146.93
2022-11-16T03:32:52.191Z,111.80
2022-11-16T03:35:22.513Z,81.33
2022-11-16T03:37:50.956Z,82.93
2022-11-16T03:40:18.791Z,39.27
2022-11-16T03:42:46.431Z,83.53
2022-11-16T03:45:13.750Z,44.00
2022-11-16T03:47:42.002Z,42.93
2022-11-16T03:50:09.892Z,35.97
2022-11-16T03:52:36.575Z,65.03
2022-11-16T03:55:03.784Z,47.93
2022-11-16T03:57:30.522Z,22.53
2022-11-16T03:59:57.251Z,29.77
2022-11-16T04:02:23.910Z,71.53
2022-11-16T04:05:09.133Z,32.67
2022-11-16T04:07:54.232Z,43.47
2022-11-16T04:10:39.492Z,28.37
2022-11-16T04:13:28.350Z,49.70
2022-11-16T04:16:13.509Z,63.50
2022-11-16T04:18:59.102Z,51.47
2022-11-16T04:21:46.513Z,20.80
2022-11-16T04:24:16.454Z,14.90
2022-11-16T04:27:04.641Z,19.73
2022-11-16T04:29:31.595Z,60.90
2022-11-16T04:32:16.862Z,13.50
2022-11-16T04:35:01.959Z,19.90
2022-11-16T04:37:47.210Z,13.90
2022-11-16T04:40:15.002Z,9.37
2022-11-16T04:42:41.737Z,14.60
2022-11-16T04:45:27.444Z,9.33
2022-11-16T04:47:54.569Z,5.80
2022-11-16T04:50:21.499Z,9.27
2022-11-16T04:52:49.602Z,5.00
2022-11-16T04:55:16.494Z,11.73
2022-11-16T04:57:43.194Z,123.93
2022-11-16T05:00:10.647Z,44.43
2022-11-16T05:02:37.502Z,24.40
2022-11-16T05:05:04.419Z,21.60
2022-11-16T05:07:31.215Z,27.20
2022-11-16T05:09:57.904Z,17.90
2022-11-16T05:12:26.593Z,18.60
2022-11-16T05:14:55.032Z,15.27
2022-11-16T05:17:23.085Z,21.63
2022-11-16T05:20:12.584Z,14.50
2022-11-16T05:22:39.451Z,14.77
2022-11-16T05:25:07.644Z,14.03
2022-11-16T05:27:34.235Z,19.20
2022-11-16T05:30:00.867Z,11.40
2022-11-16T05:32:28.079Z,10.10
2022-11-16T05:34:54.771Z,19.23
2022-11-16T05:37:21.439Z,22.20
2022-11-16T05:39:48.403Z,19.03
2022-11-16T05:42:15.212Z,16.73
2022-11-16T05:44:41.869Z,13.07
2022-11-16T05:47:08.502Z,13.10
2022-11-16T05:49:35.213Z,17.00
2022-11-16T05:52:01.965Z,19.23
2022-11-16T05:54:28.674Z,23.87
2022-11-16T05:56:55.378Z,19.93
2022-11-16T05:59:22.850Z,27.30
2022-11-16T06:01:50.443Z,13.60
2022-11-16T06:06:57.866Z,21.50
2022-11-16T06:09:24.714Z,19.20
2022-11-16T06:11:51.604Z,16.37
2022-11-16T06:14:18.302Z,22.00
2022-11-16T06:16:45.014Z,37.80
2022-11-16T06:19:11.854Z,27.60
2022-11-16T06:21:38.575Z,32.33
2022-11-16T06:24:09.230Z,16.10
2022-11-16T06:26:37.172Z,37.03
2022-11-16T06:29:04.391Z,30.13
2022-11-16T06:31:31.364Z,17.53
2022-11-16T06:33:58.059Z,17.20
2022-11-16T06:36:24.892Z,25.10
2022-11-16T06:38:51.613Z,10.10
2022-11-16T06:41:18.437Z,22.60
2022-11-16T06:43:45.365Z,18.40
2022-11-16T06:46:12.252Z,20.67
2022-11-16T06:48:39.044Z,18.30
2022-11-16T06:51:05.972Z,24.20
2022-11-16T06:53:32.716Z,16.77
2022-11-16T06:56:04.498Z,19.70
2022-11-16T06:58:32.324Z,16.50
2022-11-16T07:01:08.914Z,18.80
2022-11-16T07:03:35.652Z,19.60
2022-11-16T07:06:08.016Z,19.33
2022-11-16T07:08:35.073Z,17.53
2022-11-16T07:11:04.407Z,23.53
2022-11-16T07:13:32.955Z,11.93
2022-11-16T07:16:10.254Z,11.47
2022-11-16T07:18:39.217Z,15.37
2022-11-16T07:21:11.162Z,14.03
2022-11-16T07:23:38.008Z,12.90
2022-11-16T07:26:06.377Z,14.97
2022-11-16T07:28:33.604Z,21.30
2022-11-16T07:31:07.245Z,16.40
2022-11-16T07:33:34.277Z,17.73
2022-11-16T07:36:05.982Z,15.40
2022-11-16T07:38:33.588Z,12.13
2022-11-16T07:41:04.851Z,20.33
2022-11-16T07:43:32.725Z,11.70
2022-11-16T07:46:45.455Z,14.20
2022-11-16T07:49:11.177Z,10.33
2022-11-16T07:51:38.538Z,14.07
2022-11-16T07:54:06.726Z,10.17
2022-11-16T07:56:33.563Z,14.77
2022-11-16T07:59:00.689Z,8.40
2022-11-16T08:01:27.555Z,22.20
2022-11-16T08:03:54.462Z,12.83
2022-11-16T08:06:24.412Z,14.43
2022-11-16T08:08:56.670Z,13.73
2022-11-16T08:11:25.055Z,19.30
2022-11-16T08:13:51.802Z,15.00
2022-11-16T08:16:21.354Z,10.20
2022-11-16T08:18:48.297Z,10.00
2022-11-16T08:21:16.712Z,15.13
2022-11-16T08:23:45.153Z,24.27
2022-11-16T08:26:16.809Z,18.53
2022-11-16T08:28:45.164Z,11.73
2022-11-16T08:31:19.084Z,15.70
2022-11-16T08:33:45.753Z,19.20
2022-11-16T08:36:17.317Z,27.23
2022-11-16T08:38:45.023Z,15.10
2022-11-16T08:41:12.104Z,22.70
2022-11-16T08:43:40.562Z,18.33
2022-11-16T08:46:09.093Z,21.33
2022-11-16T08:48:36.836Z,17.10
2022-11-16T08:51:21.337Z,26.23
2022-11-16T08:53:49.536Z,19.90
2022-11-16T08:56:18.626Z,15.03
2022-11-16T08:58:51.470Z,25.23
2022-11-16T09:01:24.721Z,13.33
2022-11-16T09:03:52.861Z,20.70
2022-11-16T09:06:19.875Z,24.97
2022-11-16T09:08:47.226Z,12.30
2022-11-16T09:11:17.412Z,18.33
2022-11-16T09:13:45.124Z,19.13
2022-11-16T09:16:12.043Z,23.60
2022-11-16T09:18:38.914Z,27.30
2022-11-16T09:21:05.703Z,17.17
2022-11-16T09:23:32.352Z,19.33
2022-11-16T09:26:03.914Z,15.90
2022-11-16T09:28:31.130Z,13.53
2022-11-16T09:31:02.912Z,14.67
2022-11-16T09:33:30.909Z,18.10
2022-11-16T09:36:02.183Z,12.27
2022-11-16T09:38:40.570Z,10.70
2022-11-16T09:41:15.764Z,9.20
2022-11-16T09:43:53.732Z,16.33
2022-11-16T09:46:53.693Z,23.00
2022-11-16T09:49:24.285Z,19.43
2022-11-16T09:51:54.159Z,14.63
2022-11-16T09:54:34.325Z,21.13
2022-11-16T09:57:07.982Z,44.30
2022-11-16T09:59:41.681Z,45.03
2022-11-16T10:02:27.459Z,16.17
2022-11-16T10:05:00.543Z,15.60
2022-11-16T10:07:32.153Z,14.83
2022-11-16T10:09:58.911Z,17.40
2022-11-16T10:12:43.909Z,9.80
2022-11-16T10:15:23.628Z,8.67
2022-11-16T10:18:03.730Z,18.03
2022-11-16T10:20:36.104Z,15.73
2022-11-16T10:23:37.483Z,9.77
2022-11-16T10:26:12.581Z,9.27
2022-11-16T10:29:02.083Z,13.43
2022-11-16T10:32:28.982Z,17.17
2022-11-16T10:35:00.652Z,17.43
2022-11-16T10:37:36.856Z,16.80
2022-11-16T10:40:16.031Z,12.23
2022-11-16T10:42:44.644Z,15.00
2022-11-16T10:45:11.526Z,11.30
2022-11-16T10:47:46.812Z,10.90
2022-11-16T10:50:37.985Z,18.17
2022-11-16T10:53:04.890Z,12.97
2022-11-16T10:55:31.745Z,23.93
2022-11-16T10:58:01.346Z,15.70
2022-11-16T11:00:38.819Z,14.97
2022-11-16T11:03:05.978Z,37.43
2022-11-16T11:05:34.832Z,15.50
2022-11-16T11:08:01.967Z,19.63
2022-11-16T11:10:30.373Z,13.30
2022-11-16T11:13:06.330Z,13.97
2022-11-16T11:15:33.332Z,15.70
2022-11-16T11:18:23.924Z,12.77
2022-11-16T11:21:13.782Z,15.03
2022-11-16T11:24:37.356Z,22.63
2022-11-16T11:26:55.317Z,12.37
2022-11-16T11:29:29.116Z,9.63
2022-11-16T11:32:05.594Z,15.60
2022-11-16T11:34:39.423Z,37.83
2022-11-16T11:37:07.951Z,19.40
2022-11-16T11:39:36.038Z,10.90
2022-11-16T11:42:02.812Z,18.50
2022-11-16T11:44:38.819Z,13.80
2022-11-16T11:50:55.854Z,20.40
2022-11-16T11:53:46.996Z,15.47
2022-11-16T11:56:14.551Z,20.00
2022-11-16T11:58:42.273Z,21.13
2022-11-16T12:01:33.644Z,18.30
2022-11-16T12:04:31.129Z,16.90
2022-11-16T12:07:13.116Z,22.03
2022-11-16T12:09:54.782Z,14.67
2022-11-16T12:12:24.164Z,12.30
2022-11-16T12:15:21.749Z,9.87
2022-11-16T12:17:54.191Z,14.73
2022-11-16T12:20:33.985Z,15.13
2022-11-16T12:23:22.415Z,9.77
2022-11-16T12:26:24.554Z,9.57
2022-11-16T12:29:09.528Z,16.23
2022-11-16T12:31:58.983Z,13.83
2022-11-16T12:34:44.330Z,8.17
2022-11-16T12:37:18.293Z,17.40
2022-11-16T12:40:12.071Z,15.03
2022-11-16T12:42:53.671Z,10.10
2022-11-16T12:45:46.649Z,20.17
2022-11-16T12:48:29.862Z,24.50
2022-11-16T12:51:07.112Z,13.30
2022-11-16T12:53:55.773Z,11.07
2022-11-16T12:56:48.965Z,9.90
2022-11-16T12:59:57.523Z,15.30
2022-11-16T13:02:55.209Z,13.07
2022-11-16T13:05:44.088Z,14.27
2022-11-16T13:08:26.010Z,13.60
2022-11-16T13:10:57.881Z,13.00
2022-11-16T13:13:38.838Z,12.20
2022-11-16T13:16:06.875Z,11.60
2022-11-16T13:18:36.105Z,40.57
2022-11-16T13:21:27.074Z,18.57
2022-11-16T13:24:30.991Z,14.60
2022-11-16T13:27:28.731Z,18.53
2022-11-16T13:30:05.171Z,17.87
2022-11-16T13:32:37.939Z,21.23
2022-11-16T13:35:06.023Z,21.03
2022-11-16T13:37:52.334Z,28.90
2022-11-16T13:40:32.131Z,48.77
2022-11-16T13:43:02.757Z,34.23
2022-11-16T13:45:36.671Z,26.57
2022-11-16T13:48:14.952Z,17.60
2022-11-16T13:50:51.582Z,28.77
2022-11-16T13:56:16.451Z,12.83
2022-11-16T13:58:48.923Z,8.50
2022-11-16T14:01:16.974Z,17.93
2022-11-16T14:03:45.592Z,20.60
2022-11-16T14:06:24.673Z,15.10
2022-11-16T14:08:55.786Z,16.77
2022-11-16T14:11:33.321Z,15.30
2022-11-16T14:14:10.345Z,51.77
2022-11-16T14:16:46.146Z,13.73
2022-11-16T14:19:47.595Z,15.17
2022-11-16T14:22:44.661Z,11.13
2022-11-16T14:25:14.202Z,14.93
2022-11-16T14:28:07.083Z,27.17
2022-11-16T14:30:54.361Z,29.77
2022-11-16T14:33:30.169Z,26.40
2022-11-16T14:35:57.075Z,19.07
2022-11-16T14:38:29.229Z,20.90
2022-11-16T14:40:59.728Z,23.87
2022-11-16T14:43:41.889Z,12.97
2022-11-16T14:46:26.216Z,19.40
2022-11-16T14:48:55.379Z,14.43
2022-11-16T14:51:26.095Z,15.40
2022-11-16T14:53:57.995Z,15.00
2022-11-16T14:56:24.750Z,14.53
2022-11-16T14:58:59.952Z,17.83
2022-11-16T15:01:28.940Z,24.90
2022-11-16T15:04:05.370Z,18.27
2022-11-16T15:06:45.960Z,24.50
2022-11-16T15:09:35.465Z,13.20
2022-11-16T15:12:22.883Z,19.53
2022-11-16T15:14:53.820Z,25.97
2022-11-16T15:17:22.624Z,16.20
2022-11-16T15:19:56.124Z,16.50
2022-11-16T15:22:24.550Z,15.80
2022-11-16T15:24:56.450Z,16.10
2022-11-16T15:27:41.281Z,19.90
2022-11-16T15:30:20.074Z,15.40
2022-11-16T15:32:48.392Z,11.30
2022-11-16T15:35:32.870Z,17.83
2022-11-16T15:38:02.621Z,20.87
2022-11-16T15:40:30.441Z,17.13
2022-11-16T15:42:59.862Z,17.30
2022-11-16T15:45:27.555Z,24.53
2022-11-16T15:47:55.009Z,36.80
2022-11-16T15:50:26.171Z,28.37
2022-11-16T15:52:56.108Z,26.87
2022-11-16T15:55:24.246Z,14.70
2022-11-16T15:58:30.364Z,24.50
2022-11-16T16:00:59.308Z,16.90
2022-11-16T16:03:31.856Z,11.30
2022-11-16T16:05:59.103Z,14.17
2022-11-16T16:08:32.624Z,18.27
2022-11-16T16:11:01.514Z,18.47
2022-11-16T16:13:37.135Z,59.73
2022-11-16T16:16:37.523Z,25.77
2022-11-16T16:19:25.941Z,27.00
2022-11-16T16:21:53.006Z,21.80
2022-11-16T16:24:46.512Z,18.27
2022-11-16T16:27:24.697Z,21.47
2022-11-16T16:29:53.381Z,20.73
2022-11-16T16:32:30.161Z,20.20
2022-11-16T16:34:59.455Z,20.23
2022-11-16T16:37:29.031Z,17.20
2022-11-16T16:39:55.803Z,22.80
2022-11-16T16:42:22.604Z,30.23
2022-11-16T16:44:50.142Z,29.23
2022-11-16T16:47:20.760Z,27.10
2022-11-16T16:49:48.514Z,34.17
2022-11-16T16:52:15.834Z,24.90
2022-11-16T16:54:42.681Z,27.10
2022-11-16T16:57:14.143Z,39.27
2022-11-16T16:59:41.265Z,30.53
2022-11-16T17:02:11.405Z,21.20
2022-11-16T17:04:38.191Z,29.57
2022-11-16T17:07:05.497Z,27.40
2022-11-16T17:09:32.394Z,24.67
2022-11-16T17:11:59.112Z,25.27
2022-11-16T17:14:25.732Z,30.73
2022-11-16T17:16:52.631Z,28.37
2022-11-16T17:19:20.179Z,32.60
2022-11-16T17:21:46.942Z,24.97
2022-11-16T17:24:13.644Z,41.40
2022-11-16T17:26:40.978Z,49.93
2022-11-16T17:29:07.770Z,47.10
2022-11-16T17:31:34.476Z,46.47
2022-11-16T17:34:01.375Z,45.30
2022-11-16T17:36:28.125Z,44.87
2022-11-16T17:38:54.759Z,39.20
2022-11-16T17:41:25.736Z,43.23
2022-11-16T17:44:00.821Z,34.30
2022-11-16T17:46:36.510Z,36.27
2022-11-16T17:49:09.651Z,41.30
2022-11-16T17:51:42.588Z,38.20
2022-11-16T17:54:11.376Z,41.93
2022-11-16T17:56:43.326Z,31.20
2022-11-16T17:59:11.101Z,20.47
2022-11-16T18:01:42.140Z,14.53
2022-11-16T18:04:09.657Z,27.37
2022-11-16T18:06:36.513Z,21.23
2022-11-16T18:09:03.153Z,21.83
2022-11-16T18:11:29.951Z,18.60
2022-11-16T18:14:00.613Z,36.87
2022-11-16T18:16:30.123Z,29.27
2022-11-16T18:18:58.764Z,29.57
2022-11-16T18:21:25.917Z,32.40
2022-11-16T18:23:53.008Z,28.83
2022-11-16T18:26:21.286Z,17.50
2022-11-16T18:28:49.039Z,12.30
2022-11-16T18:31:19.212Z,8.73
2022-11-16T18:33:46.292Z,9.00
2022-11-16T18:36:13.342Z,9.77
2022-11-16T18:38:40.064Z,8.40
2022-11-16T18:41:13.592Z,6.87
2022-11-16T18:43:52.143Z,7.73
2022-11-16T18:46:20.790Z,6.90
2022-11-16T18:48:47.645Z,3.60
2022-11-16T18:51:15.013Z,7.83
2022-11-16T18:53:42.073Z,14.83
2022-11-16T18:56:30.792Z,24.73
2022-11-16T18:59:12.026Z,14.20
2022-11-16T19:02:16.194Z,21.10
2022-11-16T19:04:52.519Z,15.00
2022-11-16T19:07:30.017Z,17.57
2022-11-16T19:10:08.544Z,13.30
2022-11-16T19:12:45.279Z,24.23
2022-11-16T19:15:16.296Z,28.90
2022-11-16T19:18:28.979Z,20.13
2022-11-16T19:21:24.963Z,22.90
2022-11-16T19:23:53.355Z,18.50
2022-11-16T19:26:21.368Z,24.43
2022-11-16T19:28:49.344Z,16.27
2022-11-16T19:31:21.884Z,19.97
2022-11-16T19:33:48.792Z,20.87
2022-11-16T19:36:17.424Z,23.53
2022-11-16T19:38:45.429Z,16.03
2022-11-16T19:41:13.504Z,14.30
2022-11-16T19:43:40.698Z,24.20
2022-11-16T19:46:10.045Z,13.40
2022-11-16T19:48:37.525Z,17.63
2022-11-16T19:51:05.416Z,17.60
2022-11-16T19:53:32.937Z,20.40
2022-11-16T19:55:59.830Z,20.30
2022-11-16T19:58:26.593Z,16.20
2022-11-16T20:00:53.342Z,22.60
2022-11-16T20:03:20.060Z,14.77
2022-11-16T20:05:46.718Z,11.63
2022-11-16T20:08:13.377Z,14.03
2022-11-16T20:10:39.944Z,13.40
2022-11-16T20:13:06.657Z,11.23
2022-11-16T20:15:33.340Z,17.43
2022-11-16T20:17:59.912Z,37.00
2022-11-16T20:20:26.697Z,43.33
2022-11-16T20:22:53.801Z,27.43
2022-11-16T20:25:20.457Z,49.13
2022-11-16T20:27:47.221Z,49.07
2022-11-16T20:30:14.089Z,36.63
2022-11-16T20:32:40.731Z,25.20
2022-11-16T20:35:07.539Z,25.80
2022-11-16T20:37:40.602Z,24.13
2022-11-16T20:40:09.148Z,45.50
2022-11-16T20:42:35.812Z,24.83
2022-11-16T20:45:02.701Z,17.67
2022-11-16T20:47:29.296Z,11.73
2022-11-16T20:49:56.195Z,12.20
2022-11-16T20:52:24.141Z,10.10
2022-11-16T20:54:53.921Z,13.93
2022-11-16T20:57:20.537Z,11.80
2022-11-16T20:59:52.349Z,10.50
2022-11-16T21:02:19.038Z,8.53
2022-11-16T21:04:56.071Z,7.23
2022-11-16T21:07:27.422Z,6.83
2022-11-16T21:10:12.567Z,6.17
2022-11-16T21:12:58.530Z,8.50
2022-11-16T21:15:25.102Z,7.57
2022-11-16T21:18:08.249Z,4.67
2022-11-16T21:20:34.936Z,8.17
2022-11-16T21:23:02.604Z,7.13
2022-11-16T21:25:36.599Z,4.60
2022-11-16T21:28:08.879Z,3.40
2022-11-16T21:30:42.026Z,8.03
2022-11-16T21:33:12.603Z,3.07
2022-11-16T21:35:39.679Z,15.83
2022-11-16T21:38:06.265Z,3.03
2022-11-16T21:40:33.763Z,4.17
2022-11-16T21:43:10.140Z,4.20
2022-11-16T21:45:36.939Z,5.67
2022-11-16T21:48:12.455Z,5.27
2022-11-16T21:50:41.922Z,6.43
2022-11-16T21:53:09.180Z,6.80
2022-11-16T21:55:37.688Z,11.20
2022-11-16T21:58:12.008Z,9.33
2022-11-16T22:00:39.339Z,4.27
2022-11-16T22:03:09.317Z,3.23
2022-11-16T22:05:57.471Z,4.60
2022-11-16T22:08:24.269Z,7.97
2022-11-16T22:10:52.279Z,2.43
2022-11-16T22:13:19.482Z,3.23
2022-11-16T22:15:46.238Z,2.70
2022-11-16T22:18:13.459Z,1.80
2022-11-16T22:20:40.350Z,1.93
2022-11-16T22:23:06.964Z,2.30
2022-11-16T22:25:33.825Z,5.03
2022-11-16T22:30:51.387Z,2.20
2022-11-16T22:33:18.743Z,3.50
2022-11-16T22:35:46.954Z,2.00
2022-11-16T22:38:13.541Z,2.17
2022-11-16T22:40:40.142Z,2.90
2022-11-16T22:43:06.721Z,1.30
2022-11-16T22:45:33.293Z,1.43
2022-11-16T22:47:59.997Z,1.60
2022-11-16T22:50:26.718Z,1.67
2022-11-16T22:52:53.353Z,1.17
2022-11-16T22:55:19.950Z,1.10
2022-11-16T22:57:46.513Z,0.83
2022-11-16T23:00:13.847Z,1.77
2022-11-16T23:02:40.479Z,2.63
2022-11-16T23:05:07.475Z,0.80
2022-11-16T23:07:34.083Z,1.13
2022-11-16T23:10:00.780Z,0.63
2022-11-16T23:12:45.966Z,0.90
2022-11-16T23:15:31.859Z,0.53
2022-11-16T23:17:58.563Z,0.80
2022-11-16T23:20:43.684Z,1.00
2022-11-16T23:23:38.500Z,2.80
2022-11-16T23:26:27.570Z,5.80
2022-11-16T23:28:54.645Z,4.10
2022-11-16T23:31:21.196Z,3.60
2022-11-16T23:33:47.931Z,1.23
2022-11-16T23:36:14.836Z,0.67
2022-11-16T23:38:41.439Z,0.40
2022-11-16T23:41:26.843Z,0.70
2022-11-16T23:43:59.584Z,0.77
2022-11-16T23:46:30.783Z,1.37
2022-11-16T23:48:58.122Z,0.60
2022-11-16T23:51:25.133Z,2.83
2022-11-16T23:53:52.718Z,4.73
2022-11-16T23:56:20.330Z,1.03
2022-11-16T23:58:47.293Z,1.93
